Blue Mountain, Colorado
Current Conditions -  °F | °C
As of 12:25 AM on Sunday 23 Nov 2014 (Local Time) from KVEL Reporting Station
Scattered Clouds Scattered Clouds  
Wind Chill: 26°   Ceiling: Unl
Heat Index: 32°   Visibility: 10mi
Dew Point: 31°   Wind: 6mph
Humidity: 96%   Direction: 310°NW
Pressure: 29.82"   Gusts: NA
Location:  40.362°N, 108.818°W
Report Text: KVEL 230725Z AUTO 31005KT 10SM FEW022 SCT035 00/M01 A2982 RMK AO2 RAB12E24 P0000 T00001006
Loading
Personal Weather Stations






























Interactive Weather Map New forecast layout! Learn more

10-Day Weather Forecast

Advertisements
Track Severe Weather on mobile